Terminal Aerodrome Forecast
Issued by NWS Jackson, MS

Home | Current Version | Previous Version | Text Only | Print | Product List | Glossary On
Versions: 1 2 3 4 5 6 7 8 9 10 11 12 13 14 15
000
FTUS44 KJAN 301206 RRB
TAFHBG
TAF
KHBG 301206Z 3012/3112 25005KT 5SM TSRA BR SCT009 BKN045CB OVC080
     FM301400 18011KT P6SM BKN025 OVC090
     FM301800 19012KT P6SM SHRA VCTS BKN050CB OVC090
     FM310100 19008KT P6SM VCSH SCT250=

USA.gov is the U.S. government's official web portal to all federal, state and local government web resources and services.